Time;durP1;ratioP1;P1;durP2;ratioP2;P2;SDS_P1;SDS_P2;PMS_P1;PMS_P2;Temp;Humidity;BMP_temperature;BMP_pressure;BME280_temperature;BME280_humidity;BME280_pressure;Samples;Min_cycle;Max_cycle;Signal;HPM_P1;HPM_P2
2022/05/28 00:00:17;;;;;;;0.00;0.00;;;;;;;;;;5103651;28;20375;-70
2022/05/28 00:02:42;;;;;;;0.00;0.00;;;;;;;;;;5120914;28;20030;-68
2022/05/28 00:05:07;;;;;;;0.00;0.00;;;;;;;;;;5117927;28;20356;-71
2022/05/28 00:07:33;;;;;;;0.00;0.00;;;;;;;;;;5122233;28;20066;-71
2022/05/28 00:09:58;;;;;;;0.00;0.00;;;;;;;;;;5114183;28;20023;-71
2022/05/28 00:12:29;;;;;;;0.10;0.10;;;;;;;;;;5103164;28;20061;-65
2022/05/28 00:14:55;;;;;;;0.03;0.03;;;;;;;;;;5120688;28;20020;-64
2022/05/28 00:17:20;;;;;;;0.22;0.22;;;;;;;;;;5122158;27;20102;-65
2022/05/28 00:19:45;;;;;;;0.00;0.00;;;;;;;;;;5126217;27;20527;-65
2022/05/28 00:22:11;;;;;;;0.28;0.25;;;;;;;;;;5130274;27;20463;-64
2022/05/28 00:24:39;;;;;;;0.00;0.00;;;;;;;;;;5126775;27;20460;-64
2022/05/28 00:27:04;;;;;;;3.70;2.45;;;;;;;;;;5130697;27;20023;-64
2022/05/28 00:29:29;;;;;;;0.00;0.00;;;;;;;;;;5126714;27;20020;-63
2022/05/28 00:31:54;;;;;;;0.00;0.00;;;;;;;;;;5123452;27;20064;-64
2022/05/28 00:34:21;;;;;;;0.00;0.00;;;;;;;;;;5124712;27;20098;-64
2022/05/28 00:36:46;;;;;;;0.00;0.00;;;;;;;;;;5125192;27;20480;-65
2022/05/28 00:39:11;;;;;;;1.70;1.60;;;;;;;;;;5124038;27;20122;-64
2022/05/28 00:41:40;;;;;;;0.00;0.00;;;;;;;;;;5122300;27;20475;-65
2022/05/28 00:44:06;;;;;;;0.00;0.00;;;;;;;;;;5120704;27;20019;-66
2022/05/28 00:46:31;;;;;;;0.00;0.00;;;;;;;;;;5123090;27;20098;-64
2022/05/28 00:48:57;;;;;;;0.00;0.00;;;;;;;;;;5126046;27;20011;-63
2022/05/28 00:51:28;;;;;;;0.00;0.00;;;;;;;;;;5121463;27;20032;-64
2022/05/28 00:53:56;;;;;;;0.00;0.00;;;;;;;;;;5129550;27;20084;-63
2022/05/28 00:56:22;;;;;;;0.00;0.00;;;;;;;;;;5131720;27;20042;-63
2022/05/28 00:58:48;;;;;;;0.00;0.00;;;;;;;;;;5126842;27;20015;-63
2022/05/28 01:01:14;;;;;;;0.63;0.63;;;;;;;;;;5123686;27;20080;-64
2022/05/28 01:03:41;;;;;;;0.00;0.00;;;;;;;;;;5126830;27;20023;-64
2022/05/28 01:06:22;;;;;;;0.00;0.00;;;;;;;;;;5125669;27;20032;-65
2022/05/28 01:08:52;;;;;;;0.00;0.00;;;;;;;;;;5126145;27;20046;-65
2022/05/28 01:11:19;;;;;;;0.00;0.00;;;;;;;;;;5124202;27;20102;-65
2022/05/28 01:13:44;;;;;;;0.00;0.00;;;;;;;;;;5125647;27;20083;-67
2022/05/28 01:16:10;;;;;;;0.00;0.00;;;;;;;;;;5122320;27;20019;-63
2022/05/28 01:18:39;;;;;;;0.00;0.00;;;;;;;;;;5122943;27;20054;-64
2022/05/28 01:21:28;;;;;;;0.00;0.00;;;;;;;;;;5124977;27;20068;-65
2022/05/28 01:24:02;;;;;;;0.00;0.00;;;;;;;;;;5118899;27;20039;-67
2022/05/28 01:26:45;;;;;;;0.00;0.00;;;;;;;;;;5105293;27;20081;-66
2022/05/28 01:29:12;;;;;;;0.00;0.00;;;;;;;;;;5125043;27;20448;-66
2022/05/28 01:31:37;;;;;;;0.00;0.00;;;;;;;;;;5125313;27;20023;-64
2022/05/28 01:34:04;;;;;;;0.00;0.00;;;;;;;;;;5125980;27;20032;-64
2022/05/28 01:36:30;;;;;;;0.00;0.00;;;;;;;;;;5114740;27;20054;-64
2022/05/28 01:38:55;;;;;;;0.00;0.00;;;;;;;;;;5122270;27;20102;-65
2022/05/28 01:41:22;;;;;;;0.00;0.00;;;;;;;;;;5124548;27;20408;-68
2022/05/28 01:43:48;;;;;;;0.00;0.00;;;;;;;;;;5103151;27;20483;-66
2022/05/28 01:46:14;;;;;;;0.00;0.00;;;;;;;;;;5123648;27;20024;-65
2022/05/28 01:48:40;;;;;;;0.00;0.00;;;;;;;;;;5125099;27;20050;-68
2022/05/28 01:51:09;;;;;;;0.00;0.00;;;;;;;;;;5121251;27;21390;-66
2022/05/28 01:56:22;;;;;;;0.00;0.00;;;;;;;;;;5121134;27;20062;-69
2022/05/28 01:58:48;;;;;;;0.00;0.00;;;;;;;;;;5121353;27;20067;-68
2022/05/28 02:01:13;;;;;;;0.00;0.00;;;;;;;;;;5121817;27;20050;-67
2022/05/28 02:03:41;;;;;;;0.00;0.00;;;;;;;;;;5123643;27;20030;-68
2022/05/28 02:06:06;;;;;;;0.00;0.00;;;;;;;;;;5122546;27;20046;-68
2022/05/28 02:08:35;;;;;;;0.00;0.00;;;;;;;;;;5119478;27;20442;-63
2022/05/28 02:11:03;;;;;;;0.00;0.00;;;;;;;;;;5123726;27;20015;-65
2022/05/28 02:13:38;;;;;;;0.00;0.00;;;;;;;;;;5124350;27;20087;-64
2022/05/28 02:16:11;;;;;;;0.00;0.00;;;;;;;;;;5122396;27;20031;-65
2022/05/28 02:18:36;;;;;;;0.00;0.00;;;;;;;;;;5122259;27;20090;-65
2022/05/28 02:21:06;;;;;;;0.00;0.00;;;;;;;;;;5120600;27;20539;-66
2022/05/28 02:23:31;;;;;;;;;;;;;;;;;;5118849;27;20342;-65
2022/05/28 02:26:14;;;;;;;0.00;0.00;;;;;;;;;;5122962;27;19911;-65
2022/05/28 02:28:40;;;;;;;0.00;0.00;;;;;;;;;;5114576;27;20341;-65
2022/05/28 02:31:10;;;;;;;0.00;0.00;;;;;;;;;;5121127;27;20086;-68
2022/05/28 02:33:38;;;;;;;0.00;0.00;;;;;;;;;;5121064;27;20468;-67
2022/05/28 02:36:03;;;;;;;0.00;0.00;;;;;;;;;;5103978;27;20114;-66
2022/05/28 02:38:29;;;;;;;0.00;0.00;;;;;;;;;;5123966;27;20110;-66
2022/05/28 02:40:55;;;;;;;0.00;0.00;;;;;;;;;;5125104;27;20524;-67
2022/05/28 02:43:21;;;;;;;0.00;0.00;;;;;;;;;;5121460;27;20038;-66
2022/05/28 02:45:47;;;;;;;0.00;0.00;;;;;;;;;;5120682;27;20023;-66
2022/05/28 02:48:12;;;;;;;0.00;0.00;;;;;;;;;;5119641;27;20019;-66
2022/05/28 02:50:37;;;;;;;0.00;0.00;;;;;;;;;;5121676;27;20026;-65
2022/05/28 02:53:02;;;;;;;0.00;0.00;;;;;;;;;;5121533;27;20030;-65
2022/05/28 02:55:27;;;;;;;0.00;0.00;;;;;;;;;;5118173;27;20051;-65
2022/05/28 02:57:54;;;;;;;0.00;0.00;;;;;;;;;;5123538;27;20130;-64
2022/05/28 03:00:19;;;;;;;0.00;0.00;;;;;;;;;;5103941;27;20114;-65
2022/05/28 03:02:45;;;;;;;0.00;0.00;;;;;;;;;;5118429;27;20099;-64
2022/05/28 03:05:10;;;;;;;0.00;0.00;;;;;;;;;;5125141;27;20028;-64
2022/05/28 03:07:36;;;;;;;0.00;0.00;;;;;;;;;;5124670;27;20075;-65
2022/05/28 03:10:01;;;;;;;0.00;0.00;;;;;;;;;;5119599;27;20015;-66
2022/05/28 03:12:26;;;;;;;0.00;0.00;;;;;;;;;;5124324;27;20022;-65
2022/05/28 03:14:51;;;;;;;0.00;0.00;;;;;;;;;;5118470;27;20030;-65
2022/05/28 03:17:16;;;;;;;0.00;0.00;;;;;;;;;;5124384;27;20034;-66
2022/05/28 03:19:42;;;;;;;0.00;0.00;;;;;;;;;;5115390;27;20578;-66
2022/05/28 03:22:07;;;;;;;0.00;0.00;;;;;;;;;;5121282;27;20063;-65
2022/05/28 03:24:32;;;;;;;0.00;0.00;;;;;;;;;;5118558;27;20023;-65
2022/05/28 03:26:57;;;;;;;0.00;0.00;;;;;;;;;;5121651;27;20181;-65
2022/05/28 03:29:25;;;;;;;0.00;0.00;;;;;;;;;;5122363;27;20520;-67
2022/05/28 03:31:51;;;;;;;0.00;0.00;;;;;;;;;;5122370;27;20019;-67
2022/05/28 03:34:16;;;;;;;0.00;0.00;;;;;;;;;;5118929;27;20033;-67
2022/05/28 03:36:41;;;;;;;0.00;0.00;;;;;;;;;;5120546;27;20058;-67
2022/05/28 03:39:06;;;;;;;0.00;0.00;;;;;;;;;;5123947;27;20030;-68
2022/05/28 03:41:32;;;;;;;0.00;0.00;;;;;;;;;;5121175;27;20016;-66
2022/05/28 03:43:58;;;;;;;0.00;0.00;;;;;;;;;;5121536;27;20023;-65
2022/05/28 03:46:25;;;;;;;0.00;0.00;;;;;;;;;;5121648;27;20015;-66
2022/05/28 03:48:50;;;;;;;0.00;0.00;;;;;;;;;;5124169;27;20025;-66
2022/05/28 03:51:15;;;;;;;0.00;0.00;;;;;;;;;;5120035;27;20460;-66
2022/05/28 03:53:41;;;;;;;0.00;0.00;;;;;;;;;;5123295;27;20071;-67
2022/05/28 03:56:06;;;;;;;0.00;0.00;;;;;;;;;;5121064;28;20055;-66
2022/05/28 03:58:31;;;;;;;0.00;0.00;;;;;;;;;;5122643;28;20157;-66
2022/05/28 04:00:57;;;;;;;0.00;0.00;;;;;;;;;;5119155;28;20031;-68
2022/05/28 04:03:22;;;;;;;0.00;0.00;;;;;;;;;;5119073;28;20027;-65
2022/05/28 04:05:47;;;;;;;0.00;0.00;;;;;;;;;;5123590;28;20027;-68
2022/05/28 04:08:12;;;;;;;0.00;0.00;;;;;;;;;;5116766;28;20027;-68
2022/05/28 04:10:37;;;;;;;0.00;0.00;;;;;;;;;;5118463;28;20035;-70
2022/05/28 04:13:03;;;;;;;0.00;0.00;;;;;;;;;;5123851;28;20023;-69
2022/05/28 04:15:28;;;;;;;0.00;0.00;;;;;;;;;;5118051;28;20031;-67
2022/05/28 04:17:54;;;;;;;0.00;0.00;;;;;;;;;;5121478;28;20015;-67
2022/05/28 04:20:19;;;;;;;0.00;0.00;;;;;;;;;;5122506;28;20089;-68
2022/05/28 04:22:44;;;;;;;0.00;0.00;;;;;;;;;;5118335;28;20417;-68
2022/05/28 04:25:09;;;;;;;0.00;0.00;;;;;;;;;;5120778;28;20019;-68
2022/05/28 04:27:35;;;;;;;0.00;0.00;;;;;;;;;;5120940;28;20475;-69
2022/05/28 04:30:00;;;;;;;0.00;0.00;;;;;;;;;;5120627;28;20054;-68
2022/05/28 04:32:26;;;;;;;0.00;0.00;;;;;;;;;;5117088;28;20122;-68
2022/05/28 04:34:51;;;;;;;0.00;0.00;;;;;;;;;;5119740;28;20026;-68
2022/05/28 04:37:16;;;;;;;0.00;0.00;;;;;;;;;;5119398;28;20039;-66
2022/05/28 04:39:41;;;;;;;0.00;0.00;;;;;;;;;;5122886;28;20444;-67
2022/05/28 04:42:07;;;;;;;0.00;0.00;;;;;;;;;;5115135;28;20457;-67
2022/05/28 04:44:32;;;;;;;0.00;0.00;;;;;;;;;;5121808;28;20102;-66
2022/05/28 04:46:57;;;;;;;0.00;0.00;;;;;;;;;;5118091;28;20081;-66
2022/05/28 04:49:22;;;;;;;0.00;0.00;;;;;;;;;;5098116;28;20027;-66
2022/05/28 04:51:47;;;;;;;0.00;0.00;;;;;;;;;;5120002;28;20495;-68
2022/05/28 04:54:13;;;;;;;0.00;0.00;;;;;;;;;;5117672;28;20096;-66
2022/05/28 04:56:38;;;;;;;0.00;0.00;;;;;;;;;;5122648;28;20099;-67
2022/05/28 04:59:03;;;;;;;0.00;0.00;;;;;;;;;;5117905;28;20142;-66
2022/05/28 05:01:28;;;;;;;0.00;0.00;;;;;;;;;;5122774;28;20030;-68
2022/05/28 05:03:53;;;;;;;0.00;0.00;;;;;;;;;;5123379;27;20030;-65
2022/05/28 05:06:19;;;;;;;0.00;0.00;;;;;;;;;;5121785;27;20024;-66
2022/05/28 05:08:44;;;;;;;0.00;0.00;;;;;;;;;;5125869;27;20015;-67
2022/05/28 05:11:10;;;;;;;0.00;0.00;;;;;;;;;;5123062;27;20383;-67
2022/05/28 05:13:35;;;;;;;0.00;0.00;;;;;;;;;;5122272;27;20019;-67
2022/05/28 05:16:05;;;;;;;0.00;0.00;;;;;;;;;;5118515;27;20019;-67
2022/05/28 05:18:31;;;;;;;0.00;0.00;;;;;;;;;;5125454;27;20015;-66
2022/05/28 05:20:56;;;;;;;0.13;0.13;;;;;;;;;;5124594;27;20094;-67
2022/05/28 05:23:21;;;;;;;0.00;0.00;;;;;;;;;;5122050;27;20043;-67
2022/05/28 05:25:46;;;;;;;0.00;0.00;;;;;;;;;;5124183;27;20019;-67
2022/05/28 05:28:11;;;;;;;0.00;0.00;;;;;;;;;;5122837;27;20100;-67
2022/05/28 05:30:37;;;;;;;0.00;0.00;;;;;;;;;;5123989;27;20025;-66
2022/05/28 05:33:02;;;;;;;0.00;0.00;;;;;;;;;;5103545;27;20038;-69
2022/05/28 05:35:27;;;;;;;0.00;0.00;;;;;;;;;;5102372;27;20034;-68
2022/05/28 05:37:52;;;;;;;0.00;0.00;;;;;;;;;;5125580;27;20038;-68
2022/05/28 05:40:18;;;;;;;2.42;1.30;;;;;;;;;;5120981;27;20027;-68
2022/05/28 05:42:43;;;;;;;0.00;0.00;;;;;;;;;;5120348;27;20024;-67
2022/05/28 05:45:09;;;;;;;0.00;0.00;;;;;;;;;;5122342;27;20030;-67
2022/05/28 05:47:34;;;;;;;0.00;0.00;;;;;;;;;;5120849;27;20050;-67
2022/05/28 05:49:59;;;;;;;0.00;0.00;;;;;;;;;;5120210;27;20016;-67
2022/05/28 05:52:24;;;;;;;2.63;2.05;;;;;;;;;;5118979;27;20054;-68
2022/05/28 05:54:50;;;;;;;0.00;0.00;;;;;;;;;;5123654;27;20111;-67
2022/05/28 05:57:15;;;;;;;0.52;0.52;;;;;;;;;;5119924;27;20024;-67
2022/05/28 05:59:40;;;;;;;0.00;0.00;;;;;;;;;;5124261;27;20031;-68
2022/05/28 06:02:06;;;;;;;0.00;0.00;;;;;;;;;;5118157;27;20340;-68
2022/05/28 06:04:31;;;;;;;0.00;0.00;;;;;;;;;;5121502;27;20047;-66
2022/05/28 06:06:58;;;;;;;0.00;0.00;;;;;;;;;;5128452;27;20048;-66
2022/05/28 06:09:23;;;;;;;0.00;0.00;;;;;;;;;;5126443;27;20160;-65
2022/05/28 06:11:48;;;;;;;0.47;0.47;;;;;;;;;;5116842;27;20038;-67
2022/05/28 06:14:13;;;;;;;0.00;0.00;;;;;;;;;;5122603;27;20031;-66
2022/05/28 06:16:39;;;;;;;0.00;0.00;;;;;;;;;;5120498;27;20508;-65
2022/05/28 06:19:05;;;;;;;0.00;0.00;;;;;;;;;;5119667;27;20027;-66
2022/05/28 06:21:31;;;;;;;0.00;0.00;;;;;;;;;;5119827;27;20104;-65
2022/05/28 06:23:56;;;;;;;0.00;0.00;;;;;;;;;;5126011;27;20072;-65
2022/05/28 06:26:21;;;;;;;0.20;0.17;;;;;;;;;;5130810;27;20025;-65
2022/05/28 06:28:47;;;;;;;0.80;0.77;;;;;;;;;;5122512;27;20424;-65
2022/05/28 06:31:13;;;;;;;0.30;0.30;;;;;;;;;;5117088;27;20106;-64
2022/05/28 06:33:39;;;;;;;0.00;0.00;;;;;;;;;;5119424;27;20039;-62
2022/05/28 06:36:05;;;;;;;1.00;0.40;;;;;;;;;;5127098;27;20051;-64
2022/05/28 06:38:30;;;;;;;0.00;0.00;;;;;;;;;;5124110;27;20011;-63
2022/05/28 06:40:56;;;;;;;0.25;0.25;;;;;;;;;;5121183;27;20030;-63
2022/05/28 06:43:22;;;;;;;0.40;0.10;;;;;;;;;;5121390;27;20058;-65
2022/05/28 06:45:47;;;;;;;0.10;0.10;;;;;;;;;;5107190;27;20035;-66
2022/05/28 06:48:12;;;;;;;2.40;2.20;;;;;;;;;;5121147;27;20019;-64
2022/05/28 06:53:21;;;;;;;0.82;0.43;;;;;;;;;;5120009;27;20027;-65
2022/05/28 06:55:47;;;;;;;2.70;2.50;;;;;;;;;;5117533;27;20471;-65
2022/05/28 06:58:12;;;;;;;0.00;0.00;;;;;;;;;;5128733;27;20396;-66
2022/05/28 07:00:41;;;;;;;0.80;0.80;;;;;;;;;;5124378;27;20022;-65
2022/05/28 07:03:13;;;;;;;1.02;0.05;;;;;;;;;;5117850;27;20027;-65
2022/05/28 07:05:39;;;;;;;1.02;1.00;;;;;;;;;;5123002;27;20472;-65
2022/05/28 07:08:04;;;;;;;0.43;0.43;;;;;;;;;;5118704;27;20120;-64
2022/05/28 07:10:29;;;;;;;3.03;2.92;;;;;;;;;;5121885;27;20109;-65
2022/05/28 07:12:58;;;;;;;0.22;0.22;;;;;;;;;;5122237;27;20015;-66
2022/05/28 07:15:23;;;;;;;0.00;0.00;;;;;;;;;;5122730;27;20039;-65
2022/05/28 07:17:48;;;;;;;0.00;0.00;;;;;;;;;;5118162;27;20019;-66
2022/05/28 07:20:13;;;;;;;2.00;1.90;;;;;;;;;;5123325;27;20015;-64
2022/05/28 07:22:39;;;;;;;0.00;0.00;;;;;;;;;;5125484;27;20043;-64
2022/05/28 07:25:04;;;;;;;0.73;0.73;;;;;;;;;;5125239;27;20030;-69
2022/05/28 07:27:30;;;;;;;0.03;0.03;;;;;;;;;;5125028;27;20451;-65
2022/05/28 07:29:55;;;;;;;5.07;0.22;;;;;;;;;;5105569;27;20031;-65
2022/05/28 07:32:22;;;;;;;0.00;0.00;;;;;;;;;;5119902;27;20109;-64
2022/05/28 07:34:48;;;;;;;0.00;0.00;;;;;;;;;;5119998;27;20136;-66
2022/05/28 07:37:13;;;;;;;0.00;0.00;;;;;;;;;;5123457;27;20100;-67
2022/05/28 07:39:38;;;;;;;0.00;0.00;;;;;;;;;;5122160;27;20276;-66
2022/05/28 07:42:04;;;;;;;1.55;0.25;;;;;;;;;;5122783;27;20019;-67
2022/05/28 07:44:29;;;;;;;0.00;0.00;;;;;;;;;;5122086;27;20034;-66
2022/05/28 07:46:54;;;;;;;0.00;0.00;;;;;;;;;;5121308;27;20027;-67
2022/05/28 07:49:19;;;;;;;0.00;0.00;;;;;;;;;;5104999;28;20026;-65
2022/05/28 07:51:45;;;;;;;0.00;0.00;;;;;;;;;;5120938;27;20022;-67
2022/05/28 07:54:10;;;;;;;0.00;0.00;;;;;;;;;;5117768;27;20103;-64
2022/05/28 07:56:35;;;;;;;0.00;0.00;;;;;;;;;;5124191;27;20320;-64
2022/05/28 07:59:00;;;;;;;0.00;0.00;;;;;;;;;;5118619;28;20047;-64
2022/05/28 08:01:29;;;;;;;0.00;0.00;;;;;;;;;;5123942;28;20090;-63
2022/05/28 08:03:55;;;;;;;;;;;;;;;;;;5124191;28;20344;-64
2022/05/28 08:06:21;;;;;;;0.00;0.00;;;;;;;;;;5116927;28;19926;-64
2022/05/28 08:08:47;;;;;;;0.00;0.00;;;;;;;;;;5118857;28;20027;-64
2022/05/28 08:11:12;;;;;;;10.95;10.43;;;;;;;;;;5120954;28;20099;-65
2022/05/28 08:13:37;;;;;;;0.00;0.00;;;;;;;;;;5123092;28;20355;-64
2022/05/28 08:16:03;;;;;;;0.20;0.20;;;;;;;;;;5123676;28;20027;-64
2022/05/28 08:18:28;;;;;;;0.20;0.20;;;;;;;;;;5120271;28;20020;-63
2022/05/28 08:23:40;;;;;;;0.00;0.00;;;;;;;;;;5117782;28;20053;-63
2022/05/28 08:26:05;;;;;;;0.00;0.00;;;;;;;;;;5126075;28;20019;-63
2022/05/28 08:28:31;;;;;;;1.45;0.15;;;;;;;;;;5122125;28;20031;-63
2022/05/28 08:30:56;;;;;;;0.00;0.00;;;;;;;;;;5124266;28;20050;-63
2022/05/28 08:33:21;;;;;;;0.00;0.00;;;;;;;;;;5118299;28;20773;-65
2022/05/28 08:35:48;;;;;;;0.00;0.00;;;;;;;;;;5126208;28;20487;-64
2022/05/28 08:38:15;;;;;;;0.28;0.28;;;;;;;;;;5121971;27;20467;-64
2022/05/28 08:40:45;;;;;;;0.00;0.00;;;;;;;;;;5125208;27;20030;-63
2022/05/28 08:43:11;;;;;;;0.00;0.00;;;;;;;;;;5129605;27;20022;-64
2022/05/28 08:45:37;;;;;;;2.25;0.55;;;;;;;;;;5129242;27;20116;-64
2022/05/28 08:48:03;;;;;;;0.30;0.30;;;;;;;;;;5128454;27;20019;-63
2022/05/28 08:50:30;;;;;;;0.00;0.00;;;;;;;;;;5126470;27;20020;-63
2022/05/28 08:53:13;;;;;;;0.63;0.63;;;;;;;;;;5124763;27;20042;-63
2022/05/28 08:55:47;;;;;;;0.00;0.00;;;;;;;;;;5121582;27;20124;-63
2022/05/28 08:58:14;;;;;;;0.00;0.00;;;;;;;;;;5122092;27;20460;-64
2022/05/28 09:00:44;;;;;;;0.00;0.00;;;;;;;;;;5126473;27;20023;-63
2022/05/28 09:03:16;;;;;;;0.10;0.10;;;;;;;;;;5121153;27;20115;-64
2022/05/28 09:05:53;;;;;;;0.00;0.00;;;;;;;;;;5128194;27;20494;-63
2022/05/28 09:08:37;;;;;;;0.00;0.00;;;;;;;;;;5123747;27;20020;-63
2022/05/28 09:11:05;;;;;;;0.00;0.00;;;;;;;;;;5121151;27;20459;-62
2022/05/28 09:13:47;;;;;;;0.00;0.00;;;;;;;;;;5121651;27;20022;-64
2022/05/28 09:16:17;;;;;;;0.00;0.00;;;;;;;;;;5126054;27;20030;-63
2022/05/28 09:18:43;;;;;;;0.00;0.00;;;;;;;;;;5123562;27;20023;-66
2022/05/28 09:21:10;;;;;;;0.00;0.00;;;;;;;;;;5125324;27;20016;-65
2022/05/28 09:23:48;;;;;;;0.00;0.00;;;;;;;;;;5122188;27;20022;-63
2022/05/28 09:26:15;;;;;;;0.38;0.38;;;;;;;;;;5121916;27;20140;-64
2022/05/28 09:28:54;;;;;;;0.00;0.00;;;;;;;;;;5127906;27;20039;-63
2022/05/28 09:31:38;;;;;;;0.00;0.00;;;;;;;;;;5122947;27;20054;-64
2022/05/28 09:34:18;;;;;;;0.10;0.10;;;;;;;;;;5125207;27;20106;-64
2022/05/28 09:36:46;;;;;;;0.17;0.17;;;;;;;;;;5123643;27;20035;-63
2022/05/28 09:39:34;;;;;;;0.00;0.00;;;;;;;;;;5129881;27;20019;-64
2022/05/28 09:41:59;;;;;;;5.07;0.88;;;;;;;;;;5126231;27;20031;-63
2022/05/28 09:44:36;;;;;;;0.00;0.00;;;;;;;;;;5124929;27;20034;-64
2022/05/28 09:47:20;;;;;;;0.00;0.00;;;;;;;;;;5119843;27;20061;-64
2022/05/28 09:49:52;;;;;;;0.00;0.00;;;;;;;;;;5124818;27;20379;-64
2022/05/28 09:52:22;;;;;;;0.00;0.00;;;;;;;;;;5126664;27;20380;-64
2022/05/28 09:54:47;;;;;;;0.00;0.00;;;;;;;;;;5126326;27;20027;-64
2022/05/28 09:57:28;;;;;;;0.47;0.47;;;;;;;;;;5119938;27;20102;-65
2022/05/28 09:59:55;;;;;;;0.00;0.00;;;;;;;;;;5122903;27;20035;-64
2022/05/28 10:05:51;;;;;;;0.20;0.20;;;;;;;;;;5092699;27;20038;-67
2022/05/28 10:08:16;;;;;;;0.00;0.00;;;;;;;;;;5120252;27;20019;-68
2022/05/28 10:10:51;;;;;;;0.30;0.10;;;;;;;;;;5119311;27;21419;-67
2022/05/28 10:13:19;;;;;;;1.02;0.10;;;;;;;;;;5123596;27;20098;-67
2022/05/28 10:15:46;;;;;;;1.23;1.20;;;;;;;;;;5121694;27;20363;-67
2022/05/28 10:18:21;;;;;;;0.00;0.00;;;;;;;;;;5115612;27;20016;-66
2022/05/28 10:21:02;;;;;;;0.75;0.75;;;;;;;;;;5125711;27;20159;-66
2022/05/28 10:23:27;;;;;;;0.00;0.00;;;;;;;;;;5125731;27;20019;-66
2022/05/28 10:25:53;;;;;;;0.00;0.00;;;;;;;;;;5107984;27;20031;-66
2022/05/28 10:28:31;;;;;;;1.50;0.38;;;;;;;;;;5124543;27;20031;-67
2022/05/28 10:30:57;;;;;;;0.00;0.00;;;;;;;;;;5123611;27;20090;-66
2022/05/28 10:33:24;;;;;;;0.35;0.35;;;;;;;;;;5119068;27;20160;-65
2022/05/28 10:35:49;;;;;;;0.00;0.00;;;;;;;;;;5122253;27;20448;-66
2022/05/28 10:38:21;;;;;;;0.15;0.15;;;;;;;;;;5118023;27;20071;-64
2022/05/28 10:40:54;;;;;;;0.00;0.00;;;;;;;;;;5118215;27;20034;-66
2022/05/28 10:43:36;;;;;;;0.28;0.28;;;;;;;;;;5119329;27;20043;-65
2022/05/28 10:46:13;;;;;;;0.10;0.10;;;;;;;;;;5123002;27;20095;-66
2022/05/28 10:48:54;;;;;;;4.65;0.73;;;;;;;;;;5118985;27;20091;-64
2022/05/28 10:51:31;;;;;;;0.13;0.13;;;;;;;;;;5115743;28;20463;-65
2022/05/28 10:53:59;;;;;;;0.00;0.00;;;;;;;;;;5115714;28;20409;-67
2022/05/28 10:56:33;;;;;;;0.00;0.00;;;;;;;;;;5114482;27;20056;-66
2022/05/28 10:59:18;;;;;;;0.20;0.20;;;;;;;;;;5124637;27;20085;-68
2022/05/28 11:01:51;;;;;;;1.35;0.30;;;;;;;;;;5059086;28;20032;-65
2022/05/28 11:04:19;;;;;;;0.00;0.00;;;;;;;;;;5114584;28;20020;-65
2022/05/28 11:06:44;;;;;;;0.00;0.00;;;;;;;;;;5114187;28;20039;-65
2022/05/28 11:09:24;;;;;;;0.10;0.10;;;;;;;;;;5122216;27;20392;-67
2022/05/28 11:11:56;;;;;;;0.10;0.10;;;;;;;;;;5121942;27;20102;-68
2022/05/28 11:14:33;;;;;;;0.10;0.10;;;;;;;;;;5114332;27;20035;-66
2022/05/28 11:16:58;;;;;;;0.17;0.17;;;;;;;;;;5118219;27;20110;-67
2022/05/28 11:19:42;;;;;;;0.28;0.28;;;;;;;;;;5121362;27;20095;-68
2022/05/28 11:22:26;;;;;;;0.00;0.00;;;;;;;;;;5117286;27;20023;-68
2022/05/28 11:24:58;;;;;;;0.40;0.40;;;;;;;;;;5122684;27;20027;-68
2022/05/28 11:27:33;;;;;;;0.00;0.00;;;;;;;;;;5101698;28;20035;-65
2022/05/28 11:30:17;;;;;;;0.40;0.40;;;;;;;;;;5117115;27;20409;-66
2022/05/28 11:32:45;;;;;;;0.00;0.00;;;;;;;;;;5127180;27;20596;-66
2022/05/28 11:35:13;;;;;;;0.65;0.45;;;;;;;;;;5121112;27;20079;-66
2022/05/28 11:37:48;;;;;;;0.00;0.00;;;;;;;;;;5122357;27;20453;-66
2022/05/28 11:40:28;;;;;;;0.10;0.10;;;;;;;;;;5128345;27;20023;-65
2022/05/28 11:43:17;;;;;;;0.17;0.17;;;;;;;;;;5115494;28;20316;-66
2022/05/28 11:45:48;;;;;;;1.67;1.00;;;;;;;;;;5104318;27;20087;-64
2022/05/28 11:48:17;;;;;;;0.22;0.00;;;;;;;;;;5120512;27;20067;-65
2022/05/28 11:53:39;;;;;;;0.20;0.10;;;;;;;;;;5128915;27;20073;-66
2022/05/28 11:56:12;;;;;;;0.08;0.08;;;;;;;;;;5134150;27;20143;-67
2022/05/28 11:58:42;;;;;;;1.10;1.10;;;;;;;;;;5134106;27;20106;-65
2022/05/28 12:01:10;;;;;;;0.32;0.32;;;;;;;;;;5134474;28;20016;-66
2022/05/28 12:03:35;;;;;;;0.00;0.00;;;;;;;;;;5134221;28;20058;-66
2022/05/28 12:06:03;;;;;;;0.55;0.55;;;;;;;;;;5127669;28;20040;-67
2022/05/28 12:08:38;;;;;;;0.30;0.30;;;;;;;;;;5114386;28;20020;-67
2022/05/28 12:11:04;;;;;;;2.30;0.88;;;;;;;;;;5115023;28;20020;-67
2022/05/28 12:13:30;;;;;;;0.00;0.00;;;;;;;;;;5127219;27;20047;-67
2022/05/28 12:16:15;;;;;;;1.38;1.27;;;;;;;;;;5129597;27;20030;-66
2022/05/28 12:18:42;;;;;;;0.13;0.13;;;;;;;;;;5105724;27;20119;-68
2022/05/28 12:21:07;;;;;;;0.22;0.22;;;;;;;;;;5118593;27;20472;-68
2022/05/28 12:23:34;;;;;;;0.00;0.00;;;;;;;;;;5123996;27;20030;-69
2022/05/28 12:26:03;;;;;;;0.10;0.10;;;;;;;;;;5127199;27;20024;-68
2022/05/28 12:28:40;;;;;;;0.00;0.00;;;;;;;;;;5122776;27;20027;-66
2022/05/28 12:31:07;;;;;;;0.10;0.10;;;;;;;;;;5118566;27;20168;-67
2022/05/28 12:33:45;;;;;;;0.08;0.08;;;;;;;;;;5132133;27;20020;-67
2022/05/28 12:36:16;;;;;;;0.00;0.00;;;;;;;;;;5138040;27;20026;-67
2022/05/28 12:38:46;;;;;;;0.43;0.43;;;;;;;;;;5132335;27;20016;-67
2022/05/28 12:41:19;;;;;;;0.00;0.00;;;;;;;;;;5122263;27;20348;-67
2022/05/28 12:43:50;;;;;;;0.00;0.00;;;;;;;;;;5116898;28;20015;-64
2022/05/28 12:46:15;;;;;;;0.03;0.03;;;;;;;;;;5126818;27;20026;-62
2022/05/28 12:48:41;;;;;;;0.00;0.00;;;;;;;;;;5125558;27;20415;-65
2022/05/28 12:51:12;;;;;;;0.00;0.00;;;;;;;;;;5133635;27;20254;-70
2022/05/28 12:53:48;;;;;;;0.00;0.00;;;;;;;;;;5121332;27;20023;-64
2022/05/28 12:56:22;;;;;;;0.98;0.35;;;;;;;;;;5126225;27;20131;-63
2022/05/28 12:58:47;;;;;;;0.10;0.10;;;;;;;;;;5120942;27;20367;-64
2022/05/28 13:01:20;;;;;;;0.00;0.00;;;;;;;;;;5120890;27;20497;-63
2022/05/28 13:03:45;;;;;;;2.42;2.33;;;;;;;;;;5124911;27;20018;-64
2022/05/28 13:06:29;;;;;;;0.17;0.17;;;;;;;;;;5120554;27;20095;-65
2022/05/28 13:09:08;;;;;;;0.00;0.00;;;;;;;;;;5130952;27;20030;-63
2022/05/28 13:11:46;;;;;;;0.00;0.00;;;;;;;;;;5122098;27;20022;-64
2022/05/28 13:14:29;;;;;;;11.45;2.20;;;;;;;;;;5119523;27;20027;-67
2022/05/28 13:17:14;;;;;;;2.47;2.45;;;;;;;;;;5123433;27;20095;-62
2022/05/28 13:19:51;;;;;;;0.00;0.00;;;;;;;;;;5125519;27;20092;-63
2022/05/28 13:22:23;;;;;;;0.00;0.00;;;;;;;;;;5107791;27;20043;-63
2022/05/28 13:25:07;;;;;;;2.17;0.52;;;;;;;;;;5124758;27;20471;-64
2022/05/28 13:27:51;;;;;;;0.00;0.00;;;;;;;;;;5128036;27;20032;-66
2022/05/28 13:30:19;;;;;;;0.08;0.08;;;;;;;;;;5097115;28;20088;-65
2022/05/28 13:32:49;;;;;;;0.10;0.10;;;;;;;;;;5115941;28;20023;-65
2022/05/28 13:35:14;;;;;;;0.00;0.00;;;;;;;;;;5116219;28;20039;-66
2022/05/28 13:37:42;;;;;;;0.00;0.00;;;;;;;;;;5116505;28;20022;-65
2022/05/28 13:40:10;;;;;;;0.00;0.00;;;;;;;;;;5126768;27;20015;-65
2022/05/28 13:42:36;;;;;;;0.10;0.10;;;;;;;;;;5123207;27;20027;-67
2022/05/28 13:45:01;;;;;;;0.10;0.10;;;;;;;;;;5136304;27;20379;-65
2022/05/28 13:47:28;;;;;;;0.00;0.00;;;;;;;;;;5127822;27;20015;-62
2022/05/28 13:49:53;;;;;;;0.00;0.00;;;;;;;;;;5116109;28;20023;-66
2022/05/28 13:52:19;;;;;;;0.00;0.00;;;;;;;;;;5133354;27;20022;-69
2022/05/28 13:54:55;;;;;;;0.20;0.20;;;;;;;;;;5120084;27;20046;-66
2022/05/28 13:57:21;;;;;;;0.00;0.00;;;;;;;;;;5119249;27;20444;-64
2022/05/28 13:59:49;;;;;;;0.20;0.20;;;;;;;;;;5124047;27;20080;-64
2022/05/28 14:02:23;;;;;;;0.10;0.10;;;;;;;;;;5121005;27;20126;-66
2022/05/28 14:04:48;;;;;;;0.10;0.10;;;;;;;;;;5127133;27;20031;-65
2022/05/28 14:07:19;;;;;;;0.60;0.43;;;;;;;;;;5124747;27;20629;-67
2022/05/28 14:09:46;;;;;;;0.05;0.05;;;;;;;;;;5124724;27;20375;-67
2022/05/28 14:12:12;;;;;;;0.00;0.00;;;;;;;;;;5118983;27;20012;-63
2022/05/28 14:14:39;;;;;;;0.00;0.00;;;;;;;;;;5124215;27;20028;-65
2022/05/28 14:17:05;;;;;;;0.00;0.00;;;;;;;;;;5121296;27;20102;-65
2022/05/28 14:19:32;;;;;;;0.00;0.00;;;;;;;;;;5121613;27;20111;-64
2022/05/28 14:22:01;;;;;;;0.00;0.00;;;;;;;;;;5117211;27;20015;-64
2022/05/28 14:24:29;;;;;;;0.10;0.10;;;;;;;;;;5125228;27;20070;-65
2022/05/28 14:26:59;;;;;;;0.00;0.00;;;;;;;;;;5121520;27;20058;-64
2022/05/28 14:29:34;;;;;;;5.30;0.63;;;;;;;;;;5135536;27;20023;-68
2022/05/28 14:32:03;;;;;;;0.00;0.00;;;;;;;;;;5131943;27;20102;-67
2022/05/28 14:34:29;;;;;;;0.10;0.10;;;;;;;;;;5128863;27;20025;-67
2022/05/28 14:36:55;;;;;;;0.77;0.77;;;;;;;;;;5134143;27;20027;-64
2022/05/28 14:39:23;;;;;;;0.28;0.28;;;;;;;;;;5128140;27;20420;-65
2022/05/28 14:42:14;;;;;;;0.00;0.00;;;;;;;;;;5116444;27;20027;-65
2022/05/28 14:44:40;;;;;;;0.57;0.40;;;;;;;;;;5095878;27;20372;-64
2022/05/28 14:47:15;;;;;;;0.00;0.00;;;;;;;;;;5135865;27;20015;-63
2022/05/28 14:49:55;;;;;;;0.00;0.00;;;;;;;;;;5135681;27;20042;-65
2022/05/28 14:52:21;;;;;;;2.20;0.63;;;;;;;;;;5115016;28;20049;-69
2022/05/28 14:54:49;;;;;;;0.20;0.20;;;;;;;;;;5133760;27;20027;-66
2022/05/28 14:57:23;;;;;;;0.28;0.22;;;;;;;;;;5114468;27;20034;-66
2022/05/28 14:59:49;;;;;;;0.25;0.25;;;;;;;;;;5126907;27;20034;-63
2022/05/28 15:02:25;;;;;;;0.00;0.00;;;;;;;;;;5135315;27;20380;-65
2022/05/28 15:04:51;;;;;;;0.20;0.20;;;;;;;;;;5135556;27;20106;-66